createdAt,value
2017-09-19T00:01:33.367Z,10.10
2017-09-19T00:04:00.923Z,10.10
2017-09-19T00:06:28.464Z,10.10
2017-09-19T00:08:56.460Z,10.00
2017-09-19T00:11:24.048Z,10.00
2017-09-19T00:13:51.587Z,9.90
2017-09-19T00:16:19.143Z,9.90
2017-09-19T00:18:46.708Z,9.90
2017-09-19T00:21:16.564Z,10.00
2017-09-19T00:23:44.163Z,10.00
2017-09-19T00:26:11.767Z,10.10
2017-09-19T00:28:39.357Z,10.00
2017-09-19T00:31:07.771Z,10.00
2017-09-19T00:33:35.450Z,10.00
2017-09-19T00:36:03.072Z,10.00
2017-09-19T00:38:30.685Z,10.10
2017-09-19T00:40:58.372Z,10.10
2017-09-19T00:43:25.933Z,10.00
2017-09-19T00:45:53.539Z,10.00
2017-09-19T00:48:21.176Z,10.10
2017-09-19T00:50:48.783Z,10.10
2017-09-19T00:53:16.420Z,10.00
2017-09-19T00:55:44.032Z,10.00
2017-09-19T00:58:11.639Z,10.00
2017-09-19T01:00:39.327Z,10.10
2017-09-19T01:03:07.003Z,10.10
2017-09-19T01:05:34.548Z,10.10
2017-09-19T01:08:02.193Z,10.00
2017-09-19T01:10:29.800Z,10.00
2017-09-19T01:12:57.384Z,10.00
2017-09-19T01:15:24.940Z,10.00
2017-09-19T01:17:52.565Z,10.00
2017-09-19T01:20:20.148Z,10.10
2017-09-19T01:22:48.240Z,10.10
2017-09-19T01:25:17.350Z,10.10
2017-09-19T01:27:44.915Z,10.00
2017-09-19T01:30:12.504Z,10.00
2017-09-19T01:32:40.063Z,10.00
2017-09-19T01:35:07.595Z,10.00
2017-09-19T01:37:35.891Z,10.10
2017-09-19T01:40:03.476Z,10.10
2017-09-19T01:42:31.004Z,10.10
2017-09-19T01:44:59.544Z,10.10
2017-09-19T01:47:27.099Z,10.10
2017-09-19T01:49:54.635Z,10.10
2017-09-19T01:52:22.184Z,10.10
2017-09-19T01:54:49.796Z,10.00
2017-09-19T01:57:17.340Z,10.00
2017-09-19T01:59:44.876Z,10.10
2017-09-19T02:02:12.775Z,10.00
2017-09-19T02:04:40.328Z,10.00
2017-09-19T02:07:07.877Z,10.00
2017-09-19T02:09:35.447Z,10.00
2017-09-19T02:12:02.985Z,10.00
2017-09-19T02:14:30.524Z,10.10
2017-09-19T02:16:58.120Z,10.00
2017-09-19T02:19:25.657Z,10.00
2017-09-19T02:21:53.190Z,10.00
2017-09-19T02:24:21.164Z,10.00
2017-09-19T02:26:49.476Z,9.90
2017-09-19T02:29:17.020Z,9.90
2017-09-19T02:31:44.580Z,9.90
2017-09-19T02:34:12.156Z,9.90
2017-09-19T02:36:39.705Z,9.90
2017-09-19T02:39:07.263Z,9.90
2017-09-19T02:41:34.801Z,9.90
2017-09-19T02:44:02.339Z,9.90
2017-09-19T02:46:30.229Z,9.90
2017-09-19T02:48:57.776Z,9.90
2017-09-19T02:51:26.073Z,9.90
2017-09-19T02:53:53.631Z,9.90
2017-09-19T02:56:21.165Z,9.90
2017-09-19T02:58:49.466Z,9.80
2017-09-19T03:01:17.051Z,9.80
2017-09-19T03:03:44.588Z,9.80
2017-09-19T03:06:12.133Z,9.80
2017-09-19T03:08:39.742Z,9.80
2017-09-19T03:11:08.040Z,9.80
2017-09-19T03:13:35.592Z,9.80
2017-09-19T03:16:03.152Z,9.80
2017-09-19T03:18:30.692Z,9.80
2017-09-19T03:20:58.979Z,9.90
2017-09-19T03:23:26.547Z,9.90
2017-09-19T03:25:54.271Z,9.90
2017-09-19T03:28:21.799Z,9.90
2017-09-19T03:30:50.149Z,9.90
2017-09-19T03:33:17.683Z,9.90
2017-09-19T03:35:45.228Z,10.00
2017-09-19T03:38:13.728Z,10.00
2017-09-19T03:40:41.281Z,10.10
2017-09-19T03:43:08.832Z,10.10
2017-09-19T03:45:36.407Z,10.10
2017-09-19T03:48:03.961Z,10.20
2017-09-19T03:50:31.504Z,10.20
2017-09-19T03:52:59.120Z,10.20
2017-09-19T03:55:26.659Z,10.20
2017-09-19T03:57:54.201Z,10.20
2017-09-19T04:00:21.789Z,10.20
2017-09-19T04:02:49.332Z,10.20
2017-09-19T04:05:16.867Z,10.30
2017-09-19T04:07:44.470Z,10.30
2017-09-19T04:10:11.995Z,10.30
2017-09-19T04:12:39.910Z,10.30
2017-09-19T04:15:07.680Z,10.30
2017-09-19T04:17:35.215Z,10.30
2017-09-19T04:20:02.747Z,10.30
2017-09-19T04:22:30.319Z,10.30
2017-09-19T04:24:57.856Z,10.30
2017-09-19T04:27:25.756Z,10.40
2017-09-19T04:29:53.319Z,10.40
2017-09-19T04:32:20.896Z,10.30
2017-09-19T04:34:48.436Z,10.30
2017-09-19T04:37:16.471Z,10.30
2017-09-19T04:39:44.044Z,10.30
2017-09-19T04:42:11.615Z,10.30
2017-09-19T04:44:39.175Z,10.30
2017-09-19T04:47:06.719Z,10.10
2017-09-19T04:49:34.255Z,10.20
2017-09-19T04:52:02.582Z,10.10
2017-09-19T04:54:30.134Z,10.10
2017-09-19T04:56:57.681Z,10.10
2017-09-19T04:59:25.307Z,10.10
2017-09-19T05:01:53.632Z,10.10
2017-09-19T05:04:21.178Z,10.10
2017-09-19T05:06:48.744Z,10.10
2017-09-19T05:09:16.420Z,10.20
2017-09-19T05:11:44.716Z,10.10
2017-09-19T05:14:12.331Z,10.10
2017-09-19T05:16:39.867Z,10.00
2017-09-19T05:19:07.404Z,10.00
2017-09-19T05:21:34.988Z,10.00
2017-09-19T05:24:03.305Z,9.80
2017-09-19T05:26:30.840Z,9.80
2017-09-19T05:28:58.651Z,9.80
2017-09-19T05:31:26.184Z,9.80
2017-09-19T05:33:53.719Z,9.70
2017-09-19T05:36:22.155Z,9.60
2017-09-19T05:38:49.835Z,9.60
2017-09-19T05:41:17.375Z,9.50
2017-09-19T05:43:45.025Z,9.40
2017-09-19T05:46:12.610Z,9.30
2017-09-19T05:48:40.228Z,9.40
2017-09-19T05:51:07.944Z,9.50
2017-09-19T05:53:35.597Z,9.60
2017-09-19T05:56:03.154Z,9.60
2017-09-19T05:58:30.780Z,9.60
2017-09-19T06:00:58.327Z,9.60
2017-09-19T06:03:25.955Z,9.70
2017-09-19T06:05:53.599Z,9.80
2017-09-19T06:08:21.152Z,9.80
2017-09-19T06:10:48.692Z,9.80
2017-09-19T06:13:16.637Z,9.90
2017-09-19T06:15:44.192Z,10.00
2017-09-19T06:18:11.735Z,10.10
2017-09-19T06:20:40.119Z,10.20
2017-09-19T06:23:08.419Z,10.20
2017-09-19T06:25:36.400Z,10.20
2017-09-19T06:28:03.992Z,10.30
2017-09-19T06:30:31.803Z,10.30
2017-09-19T06:33:00.109Z,10.40
2017-09-19T06:35:27.668Z,10.30
2017-09-19T06:37:55.199Z,10.40
2017-09-19T06:40:22.744Z,10.50
2017-09-19T06:42:50.331Z,10.60
2017-09-19T06:45:17.863Z,10.70
2017-09-19T06:47:46.177Z,10.90
2017-09-19T06:50:16.343Z,10.90
2017-09-19T06:52:43.879Z,10.80
2017-09-19T06:55:11.422Z,10.90
2017-09-19T06:57:38.991Z,11.00
2017-09-19T07:00:06.531Z,11.10
2017-09-19T07:02:34.063Z,11.10
2017-09-19T07:05:01.712Z,11.20
2017-09-19T07:07:29.248Z,11.30
2017-09-19T07:09:56.801Z,11.30
2017-09-19T07:12:24.404Z,11.30
2017-09-19T07:14:52.703Z,11.30
2017-09-19T07:17:20.231Z,11.30
2017-09-19T07:19:47.807Z,11.30
2017-09-19T07:22:17.235Z,11.30
2017-09-19T07:24:44.767Z,11.30
2017-09-19T07:27:14.051Z,11.40
2017-09-19T07:29:42.371Z,11.50
2017-09-19T07:32:11.340Z,11.40
2017-09-19T07:34:38.940Z,11.50
2017-09-19T07:37:06.483Z,11.70
2017-09-19T07:39:34.019Z,11.70
2017-09-19T07:42:01.592Z,11.70
2017-09-19T07:44:29.139Z,11.80
2017-09-19T07:46:56.681Z,11.90
2017-09-19T07:49:25.251Z,12.00
2017-09-19T07:51:52.795Z,12.00
2017-09-19T07:54:20.385Z,12.10
2017-09-19T07:56:48.015Z,12.10
2017-09-19T07:59:17.187Z,11.90
2017-09-19T08:01:44.720Z,11.90
2017-09-19T08:04:12.710Z,11.90
2017-09-19T08:06:40.251Z,11.90
2017-09-19T08:09:08.552Z,12.10
2017-09-19T08:11:36.132Z,12.10
2017-09-19T08:14:03.678Z,12.10
2017-09-19T08:16:31.211Z,12.20
2017-09-19T08:18:59.571Z,12.20
2017-09-19T08:21:27.103Z,12.20
2017-09-19T08:23:54.637Z,12.30
2017-09-19T08:26:22.196Z,12.30
2017-09-19T08:28:50.496Z,12.40
2017-09-19T08:31:18.023Z,12.40
2017-09-19T08:33:46.443Z,12.40
2017-09-19T08:36:16.753Z,12.60
2017-09-19T08:38:44.295Z,12.60
2017-09-19T08:41:11.892Z,12.70
2017-09-19T08:43:39.440Z,12.90
2017-09-19T08:46:06.972Z,13.00
2017-09-19T08:48:34.680Z,13.30
2017-09-19T08:51:02.232Z,13.40
2017-09-19T08:53:29.776Z,13.60
2017-09-19T08:55:57.335Z,13.70
2017-09-19T08:58:24.871Z,13.90
2017-09-19T09:00:52.421Z,14.00
2017-09-19T09:03:20.004Z,14.00
2017-09-19T09:05:47.543Z,14.10
2017-09-19T09:08:17.268Z,14.20
2017-09-19T09:10:44.831Z,14.20
2017-09-19T09:13:12.368Z,14.20
2017-09-19T09:15:40.663Z,14.20
2017-09-19T09:18:08.225Z,14.20
2017-09-19T09:20:35.772Z,14.20
2017-09-19T09:23:03.311Z,14.20
2017-09-19T09:25:31.659Z,14.20
2017-09-19T09:27:59.192Z,14.20
2017-09-19T09:30:26.732Z,14.20
2017-09-19T09:32:54.287Z,14.20
2017-09-19T09:35:22.095Z,14.20
2017-09-19T09:37:49.636Z,14.10
2017-09-19T09:40:17.239Z,14.10
2017-09-19T09:42:44.776Z,14.10
2017-09-19T09:45:12.309Z,14.10
2017-09-19T09:47:39.912Z,14.10
2017-09-19T09:50:07.460Z,14.20
2017-09-19T09:52:35.048Z,14.30
2017-09-19T09:55:02.635Z,14.30
2017-09-19T09:57:30.240Z,14.40
2017-09-19T09:59:57.779Z,14.50
2017-09-19T10:02:25.352Z,14.60
2017-09-19T10:04:52.896Z,14.70
2017-09-19T10:07:20.432Z,14.60
2017-09-19T10:09:48.426Z,14.50
2017-09-19T10:12:16.411Z,14.60
2017-09-19T10:14:43.961Z,14.80
2017-09-19T10:17:11.515Z,14.80
2017-09-19T10:19:39.052Z,14.90
2017-09-19T10:22:06.589Z,15.00
2017-09-19T10:24:34.916Z,15.20
2017-09-19T10:27:02.452Z,15.10
2017-09-19T10:29:29.979Z,15.20
2017-09-19T10:31:57.569Z,15.30
2017-09-19T10:34:25.100Z,15.40
2017-09-19T10:36:53.852Z,15.30
2017-09-19T10:39:21.440Z,15.30
2017-09-19T10:41:48.975Z,15.20
2017-09-19T10:44:16.551Z,15.30
2017-09-19T10:46:44.179Z,15.20
2017-09-19T10:49:11.764Z,15.20
2017-09-19T10:51:39.316Z,15.30
2017-09-19T10:54:06.945Z,15.30
2017-09-19T10:56:34.476Z,15.30
2017-09-19T10:59:02.008Z,15.40
2017-09-19T11:01:29.580Z,15.50
2017-09-19T11:03:57.133Z,15.50
2017-09-19T11:06:24.673Z,15.50
2017-09-19T11:08:52.227Z,15.50
2017-09-19T11:11:20.527Z,15.50
2017-09-19T11:13:48.059Z,15.40
2017-09-19T11:16:16.456Z,15.40
2017-09-19T11:18:44.103Z,15.40
2017-09-19T11:21:12.878Z,15.50
2017-09-19T11:23:40.444Z,15.60
2017-09-19T11:26:07.967Z,15.50
2017-09-19T11:28:35.504Z,15.60
2017-09-19T11:31:06.128Z,15.80
2017-09-19T11:33:33.671Z,15.90
2017-09-19T11:36:01.237Z,15.90
2017-09-19T11:38:29.264Z,15.70
2017-09-19T11:40:56.835Z,15.80
2017-09-19T11:43:25.371Z,15.70
2017-09-19T11:45:52.932Z,15.50
2017-09-19T11:48:20.516Z,15.50
2017-09-19T11:50:48.820Z,15.30
2017-09-19T11:53:17.919Z,15.30
2017-09-19T11:55:45.583Z,15.30
2017-09-19T11:58:13.821Z,15.40
2017-09-19T12:00:42.168Z,15.30
2017-09-19T12:03:09.700Z,15.30
2017-09-19T12:05:37.227Z,15.40
2017-09-19T12:08:05.559Z,15.20
2017-09-19T12:10:33.200Z,15.10
2017-09-19T12:13:00.729Z,15.10
2017-09-19T12:15:28.299Z,15.10
2017-09-19T12:17:56.380Z,15.30
2017-09-19T12:20:23.911Z,15.50
2017-09-19T12:22:52.275Z,15.50
2017-09-19T12:25:20.612Z,15.50
2017-09-19T12:27:48.217Z,15.70
2017-09-19T12:30:16.540Z,15.80
2017-09-19T12:32:44.080Z,15.80
2017-09-19T12:35:11.963Z,15.80
2017-09-19T12:37:40.524Z,15.90
2017-09-19T12:40:08.383Z,15.80
2017-09-19T12:42:36.679Z,15.80
2017-09-19T12:45:04.331Z,15.90
2017-09-19T12:47:31.872Z,15.90
2017-09-19T12:50:00.185Z,15.70
2017-09-19T12:52:29.648Z,15.70
2017-09-19T12:54:58.108Z,15.90
2017-09-19T12:57:25.644Z,15.90
2017-09-19T12:59:55.119Z,16.00
2017-09-19T13:02:22.691Z,15.90
2017-09-19T13:04:50.239Z,15.90
2017-09-19T13:07:18.618Z,15.90
2017-09-19T13:09:46.185Z,15.90
2017-09-19T13:12:25.578Z,16.00
2017-09-19T13:16:23.035Z,16.00
2017-09-19T13:18:50.625Z,16.10
2017-09-19T13:21:18.950Z,16.20
2017-09-19T13:23:46.511Z,16.20
2017-09-19T13:26:15.602Z,16.10
2017-09-19T13:28:48.904Z,16.10
2017-09-19T13:31:29.061Z,16.10
2017-09-19T13:33:57.380Z,15.90
2017-09-19T13:36:26.161Z,15.90
2017-09-19T13:38:54.386Z,15.90
2017-09-19T13:41:22.239Z,15.90
2017-09-19T13:43:49.798Z,15.90
2017-09-19T13:46:17.963Z,15.90
2017-09-19T13:48:46.835Z,15.90
2017-09-19T13:51:16.367Z,15.90
2017-09-19T13:53:44.695Z,15.90
2017-09-19T13:56:12.416Z,15.90
2017-09-19T13:58:39.955Z,15.90
2017-09-19T14:01:07.644Z,16.00
2017-09-19T14:03:35.214Z,16.00
2017-09-19T14:06:02.783Z,16.00
2017-09-19T14:08:31.487Z,16.10
2017-09-19T14:10:59.020Z,16.10
2017-09-19T14:13:26.556Z,16.10
2017-09-19T14:15:54.907Z,16.20
2017-09-19T14:18:22.431Z,16.10
2017-09-19T14:20:51.472Z,16.30
2017-09-19T14:23:19.954Z,16.30
2017-09-19T14:25:48.364Z,16.30
2017-09-19T14:28:16.490Z,16.20
2017-09-19T14:30:44.852Z,16.10
2017-09-19T14:33:12.394Z,16.10
2017-09-19T14:35:41.691Z,15.90
2017-09-19T14:38:10.808Z,15.90
2017-09-19T14:40:38.363Z,15.90
2017-09-19T14:43:06.927Z,16.00
2017-09-19T14:45:35.291Z,15.90
2017-09-19T14:48:02.820Z,15.90
2017-09-19T14:50:31.141Z,15.90
2017-09-19T14:52:58.776Z,15.80
2017-09-19T14:55:26.331Z,15.80
2017-09-19T14:57:54.640Z,15.60
2017-09-19T15:00:22.722Z,15.50
2017-09-19T15:02:50.252Z,15.40
2017-09-19T15:05:17.985Z,15.40
2017-09-19T15:07:45.735Z,15.40
2017-09-19T15:10:14.591Z,15.40
2017-09-19T15:12:42.121Z,15.40
2017-09-19T15:15:09.781Z,15.30
2017-09-19T15:17:37.312Z,15.30
2017-09-19T15:20:04.860Z,15.20
2017-09-19T15:22:32.445Z,15.20
2017-09-19T15:24:59.979Z,15.10
2017-09-19T15:27:28.152Z,15.20
2017-09-19T15:29:56.529Z,15.00
2017-09-19T15:32:24.068Z,15.00
2017-09-19T15:34:51.612Z,14.70
2017-09-19T15:37:19.216Z,14.60
2017-09-19T15:39:46.755Z,14.50
2017-09-19T15:42:25.273Z,14.50
2017-09-19T15:44:53.056Z,14.40
2017-09-19T15:47:20.653Z,14.10
2017-09-19T15:49:48.215Z,13.90
2017-09-19T15:52:16.473Z,13.90
2017-09-19T15:54:43.996Z,13.90
2017-09-19T15:57:11.575Z,13.80
2017-09-19T15:59:39.104Z,13.80
2017-09-19T16:02:06.645Z,13.70
2017-09-19T16:04:34.205Z,13.60
2017-09-19T16:07:01.768Z,13.60
2017-09-19T16:09:29.429Z,13.50
2017-09-19T16:11:57.024Z,13.50
2017-09-19T16:14:24.558Z,13.60
2017-09-19T16:16:52.852Z,13.30
2017-09-19T16:19:20.442Z,13.30
2017-09-19T16:21:47.991Z,13.40
2017-09-19T16:24:17.305Z,13.20
2017-09-19T16:26:44.909Z,13.20
2017-09-19T16:29:12.454Z,12.90
2017-09-19T16:31:40.763Z,12.60
2017-09-19T16:34:08.325Z,12.60
2017-09-19T16:36:35.860Z,12.40
2017-09-19T16:39:03.401Z,12.30
2017-09-19T16:41:30.987Z,12.40
2017-09-19T16:43:58.516Z,12.50
2017-09-19T16:46:27.067Z,12.30
2017-09-19T16:48:54.637Z,12.20
2017-09-19T16:51:22.180Z,12.20
2017-09-19T16:53:49.812Z,12.20
2017-09-19T16:56:17.385Z,12.20
2017-09-19T16:58:44.911Z,12.20
2017-09-19T17:01:13.616Z,12.10
2017-09-19T17:03:41.211Z,12.10
2017-09-19T17:06:08.760Z,12.10
2017-09-19T17:08:36.295Z,12.00
2017-09-19T17:11:03.847Z,11.90
2017-09-19T17:13:31.393Z,11.80
2017-09-19T17:15:58.919Z,11.90
2017-09-19T17:18:26.517Z,11.80
2017-09-19T17:20:54.109Z,11.80
2017-09-19T17:23:21.672Z,11.80
2017-09-19T17:25:49.292Z,11.80
2017-09-19T17:28:16.885Z,11.80
2017-09-19T17:30:44.416Z,11.70
2017-09-19T17:33:11.995Z,11.50
2017-09-19T17:35:39.524Z,11.50
2017-09-19T17:38:07.063Z,11.50
2017-09-19T17:40:35.172Z,11.50
2017-09-19T17:43:03.480Z,11.50
2017-09-19T17:45:31.175Z,11.50
2017-09-19T17:47:59.298Z,11.40
2017-09-19T17:50:26.832Z,11.50
2017-09-19T17:52:54.912Z,11.50
2017-09-19T17:55:23.253Z,11.40
2017-09-19T17:57:50.908Z,11.40
2017-09-19T18:00:18.451Z,11.30
2017-09-19T18:02:46.012Z,11.30
2017-09-19T18:05:14.590Z,11.30
2017-09-19T18:07:43.097Z,11.20
2017-09-19T18:10:10.763Z,11.20
2017-09-19T18:12:38.521Z,11.20
2017-09-19T18:15:06.056Z,11.20
2017-09-19T18:17:33.608Z,11.30
2017-09-19T18:20:01.145Z,11.30
2017-09-19T18:22:29.455Z,11.10
2017-09-19T18:24:57.044Z,11.10
2017-09-19T18:27:24.592Z,11.00
2017-09-19T18:29:52.136Z,11.10
2017-09-19T18:32:19.795Z,11.10
2017-09-19T18:34:47.370Z,11.10
2017-09-19T18:37:16.488Z,11.10
2017-09-19T18:39:44.044Z,11.10
2017-09-19T18:42:11.578Z,11.00
2017-09-19T18:44:39.156Z,11.00
2017-09-19T18:47:06.733Z,10.90
2017-09-19T18:49:34.935Z,10.90
2017-09-19T18:52:03.264Z,10.80
2017-09-19T18:54:30.882Z,10.80
2017-09-19T18:56:58.417Z,10.70
2017-09-19T18:59:25.956Z,10.70
2017-09-19T19:01:53.558Z,10.60
2017-09-19T19:04:21.098Z,10.60
2017-09-19T19:06:48.632Z,10.60
2017-09-19T19:09:16.602Z,10.60
2017-09-19T19:11:44.177Z,10.50
2017-09-19T19:14:11.708Z,10.60
2017-09-19T19:16:39.747Z,10.60
2017-09-19T19:19:07.285Z,10.60
2017-09-19T19:21:34.868Z,10.60
2017-09-19T19:24:02.438Z,10.50
2017-09-19T19:26:29.996Z,10.60
2017-09-19T19:28:57.611Z,10.50
2017-09-19T19:31:25.219Z,10.50
2017-09-19T19:33:52.755Z,10.50
2017-09-19T19:36:20.429Z,10.50
2017-09-19T19:38:48.064Z,10.50
2017-09-19T19:41:16.416Z,10.40
2017-09-19T19:43:43.943Z,10.50
2017-09-19T19:46:11.548Z,10.40
2017-09-19T19:48:39.074Z,10.50
2017-09-19T19:51:07.024Z,10.50
2017-09-19T19:53:34.620Z,10.40
2017-09-19T19:56:02.152Z,10.40
2017-09-19T19:58:29.683Z,10.50
2017-09-19T20:00:58.048Z,10.50
2017-09-19T20:03:25.706Z,10.50
2017-09-19T20:05:53.247Z,10.40
2017-09-19T20:08:21.083Z,10.40
2017-09-19T20:10:48.676Z,10.40
2017-09-19T20:13:16.400Z,10.50
2017-09-19T20:15:43.965Z,10.40
2017-09-19T20:18:11.499Z,10.40
2017-09-19T20:20:39.786Z,10.30
2017-09-19T20:23:07.377Z,10.30
2017-09-19T20:25:34.928Z,10.30
2017-09-19T20:28:02.464Z,10.30
2017-09-19T20:30:30.029Z,10.30
2017-09-19T20:32:57.610Z,10.40
2017-09-19T20:35:25.152Z,10.30
2017-09-19T20:37:52.739Z,10.20
2017-09-19T20:40:20.271Z,10.20
2017-09-19T20:42:47.840Z,10.20
2017-09-19T20:45:17.319Z,10.20
2017-09-19T20:47:44.864Z,10.10
2017-09-19T20:50:12.404Z,10.10
2017-09-19T20:52:40.224Z,10.20
2017-09-19T20:55:07.759Z,10.10
2017-09-19T20:57:35.307Z,10.10
2017-09-19T21:00:02.871Z,10.10
2017-09-19T21:02:31.170Z,10.00
2017-09-19T21:05:05.380Z,10.00
2017-09-19T21:07:38.600Z,10.00
2017-09-19T21:10:16.323Z,10.00
2017-09-19T21:12:49.558Z,10.10
2017-09-19T21:15:22.791Z,10.10
2017-09-19T21:17:56.079Z,10.10
2017-09-19T21:20:23.168Z,10.10
2017-09-19T21:22:50.708Z,10.00
2017-09-19T21:25:18.246Z,10.00
2017-09-19T21:27:45.804Z,10.00
2017-09-19T21:30:15.413Z,10.00
2017-09-19T21:32:42.956Z,9.90
2017-09-19T21:35:10.512Z,10.00
2017-09-19T21:37:38.051Z,10.00
2017-09-19T21:40:06.344Z,10.00
2017-09-19T21:42:33.984Z,10.00
2017-09-19T21:45:01.515Z,10.00
2017-09-19T21:47:29.048Z,9.90
2017-09-19T21:49:56.603Z,10.00
2017-09-19T21:52:24.132Z,10.00
2017-09-19T21:54:53.395Z,9.90
2017-09-19T21:57:20.972Z,9.90
2017-09-19T21:59:48.524Z,9.90
2017-09-19T22:02:16.411Z,9.90
2017-09-19T22:04:44.761Z,9.90
2017-09-19T22:07:12.283Z,9.90
2017-09-19T22:09:39.904Z,9.90
2017-09-19T22:12:07.469Z,10.00
2017-09-19T22:14:35.005Z,10.00
2017-09-19T22:17:02.555Z,10.00
2017-09-19T22:19:30.099Z,10.00
2017-09-19T22:21:57.625Z,9.90
2017-09-19T22:24:25.166Z,9.80
2017-09-19T22:26:52.739Z,9.80
2017-09-19T22:29:21.040Z,9.80
2017-09-19T22:31:48.609Z,9.70
2017-09-19T22:34:16.559Z,9.70
2017-09-19T22:36:44.092Z,9.70
2017-09-19T22:39:11.617Z,9.60
2017-09-19T22:41:39.163Z,9.50
2017-09-19T22:44:06.684Z,9.50
2017-09-19T22:46:34.977Z,9.40
2017-09-19T22:49:02.591Z,9.40
2017-09-19T22:51:30.128Z,9.40
2017-09-19T22:53:57.654Z,9.30
2017-09-19T22:56:25.455Z,9.30
2017-09-19T22:58:52.984Z,9.40
2017-09-19T23:01:20.520Z,9.40
2017-09-19T23:03:48.852Z,9.30
2017-09-19T23:06:17.199Z,9.40
2017-09-19T23:08:44.732Z,9.40
2017-09-19T23:11:14.000Z,9.40
2017-09-19T23:13:41.539Z,9.40
2017-09-19T23:16:09.084Z,9.50
2017-09-19T23:18:36.650Z,9.50
2017-09-19T23:21:05.574Z,9.50
2017-09-19T23:23:33.113Z,9.50
2017-09-19T23:26:00.679Z,9.60
2017-09-19T23:28:28.223Z,9.60
2017-09-19T23:30:55.752Z,9.60
2017-09-19T23:33:23.338Z,9.70
2017-09-19T23:35:50.863Z,9.70
2017-09-19T23:38:18.420Z,9.60
2017-09-19T23:40:46.744Z,9.70
2017-09-19T23:43:26.889Z,9.60
2017-09-19T23:49:02.687Z,9.50
2017-09-19T23:51:30.224Z,9.50
2017-09-19T23:53:57.759Z,9.60
2017-09-19T23:56:27.348Z,9.50
2017-09-19T23:58:54.888Z,9.50
